Time;durP1;ratioP1;P1;durP2;ratioP2;P2;SDS_P1;SDS_P2;PMS_P1;PMS_P2;Temp;Humidity;BMP_temperature;BMP_pressure;BME280_temperature;BME280_humidity;BME280_pressure;Samples;Min_cycle;Max_cycle;Signal;HPM_P1;HPM_P2
2022/04/21 00:02:10;;;;;;;8.40;5.97;;;6.50;99.90;;;;;;4975018;28;20188;-88
2022/04/21 00:04:36;;;;;;;6.67;5.50;;;;;;;;;;4988874;28;20442;-84
2022/04/21 00:07:02;;;;;;;8.50;4.67;;;;;;;;;;4985150;28;20211;-86
2022/04/21 00:09:28;;;;;;;5.93;4.87;;;6.30;99.90;;;;;;4974106;28;20461;-84
2022/04/21 00:11:53;;;;;;;9.07;6.07;;;;;;;;;;4971938;28;20448;-85
2022/04/21 00:14:19;;;;;;;6.93;5.30;;;;;;;;;;4975627;28;20215;-86
2022/04/21 00:16:45;;;;;;;7.27;6.43;;;;;;;;;;4974218;28;20748;-81
2022/04/21 00:19:11;;;;;;;7.80;5.57;;;5.50;99.90;;;;;;4974761;28;20900;-88
2022/04/21 00:24:21;;;;;;;7.50;5.50;;;5.50;99.90;;;;;;4978423;28;21058;-87
2022/04/21 00:26:47;;;;;;;9.53;6.43;;;5.50;99.90;;;;;;4972591;28;20219;-85
2022/04/21 00:29:17;;;;;;;14.17;5.80;;;5.50;99.90;;;;;;4995143;28;20184;-87
2022/04/21 00:31:43;;;;;;;6.88;5.50;;;5.40;99.90;;;;;;4976608;28;20184;-88
2022/04/21 00:34:09;;;;;;;9.73;6.07;;;5.80;99.90;;;;;;4971271;28;20314;-87
2022/04/21 00:36:35;;;;;;;6.65;5.85;;;5.30;99.90;;;;;;4988758;28;20526;-87
2022/04/21 00:39:01;;;;;;;7.27;5.77;;;;;;;;;;4973709;28;20799;-87
2022/04/21 00:41:27;;;;;;;7.00;6.00;;;5.30;99.90;;;;;;4973885;28;20192;-87
2022/04/21 00:43:53;;;;;;;7.57;6.70;;;;;;;;;;4987059;28;20450;-84
2022/04/21 00:46:21;;;;;;;8.40;6.43;;;5.20;99.90;;;;;;4985779;28;20223;-84
2022/04/21 00:48:48;;;;;;;7.20;6.35;;;7.40;99.90;;;;;;4990872;28;20471;-86
2022/04/21 00:51:14;;;;;;;9.70;6.85;;;5.10;99.90;;;;;;4973368;28;20191;-87
2022/04/21 00:53:40;;;;;;;12.43;6.90;;;5.20;99.90;;;;;;4987041;28;20183;-84
2022/04/21 00:56:06;;;;;;;9.80;6.70;;;;;;;;;;4987697;28;20187;-85
2022/04/21 00:58:35;;;;;;;7.50;6.53;;;5.20;99.90;;;;;;4980380;28;20431;-84
2022/04/21 01:02:46;;;;;;;9.32;7.00;;;5.20;99.90;;;;;;4994656;28;20179;-83
2022/04/21 01:03:57;;;;;;;9.63;7.70;;;5.10;99.90;;;;;;4990611;28;20164;-87
2022/04/21 01:06:23;;;;;;;8.30;6.40;;;5.10;99.90;;;;;;4991946;28;20824;-88
2022/04/21 01:08:49;;;;;;;9.13;7.03;;;4.60;99.90;;;;;;4984366;28;20207;-87
2022/04/21 01:11:18;;;;;;;7.80;7.00;;;5.10;99.90;;;;;;4974500;28;20193;-88
2022/04/21 01:13:44;;;;;;;9.85;7.30;;;5.00;99.90;;;;;;4972161;28;20211;-86
2022/04/21 01:16:10;;;;;;;9.95;7.00;;;5.00;99.90;;;;;;4976983;28;20187;-86
2022/04/21 01:18:36;;;;;;;10.37;7.70;;;;;;;;;;4978908;28;20215;-86
2022/04/21 01:21:02;;;;;;;10.00;7.47;;;5.00;99.90;;;;;;4969377;28;20197;-85
2022/04/21 01:23:28;;;;;;;9.37;8.10;;;;;;;;;;4973536;28;20554;-86
2022/04/21 01:25:55;;;;;;;9.83;7.27;;;4.80;99.90;;;;;;4971715;28;20207;-87
2022/04/21 01:28:21;;;;;;;11.95;7.70;;;4.80;99.90;;;;;;4972175;28;20509;-86
2022/04/21 01:30:47;;;;;;;10.25;7.85;;;4.90;99.90;;;;;;4987841;28;20175;-86
2022/04/21 01:33:12;;;;;;;8.60;7.00;;;4.80;99.90;;;;;;4971787;28;20267;-86
2022/04/21 01:35:38;;;;;;;9.43;7.13;;;4.70;99.90;;;;;;4972581;28;20190;-84
2022/04/21 01:43:32;;;;;;;8.18;7.45;;;4.80;99.90;;;;;;4974820;28;20195;-87
2022/04/21 01:45:58;;;;;;;8.83;7.80;;;;;;;;;;4972425;28;20223;-89
2022/04/21 01:48:24;;;;;;;10.67;7.77;;;;;;;;;;4974917;28;20234;-88
2022/04/21 01:50:49;;;;;;;19.70;9.15;;;4.60;99.90;;;;;;4971399;28;20431;-86
2022/04/21 01:53:15;;;;;;;10.90;9.23;;;;;;;;;;4989083;28;20275;-87
2022/04/21 01:55:41;;;;;;;11.87;8.90;;;4.50;99.90;;;;;;4973792;28;20208;-87
2022/04/21 01:58:07;;;;;;;11.43;9.07;;;4.40;99.90;;;;;;4973008;28;20489;-88
2022/04/21 02:00:33;;;;;;;14.15;9.95;;;4.40;99.90;;;;;;4973400;28;20238;-85
2022/04/21 02:02:58;;;;;;;11.63;8.20;;;4.50;99.90;;;;;;4973225;28;20187;-87
2022/04/21 02:05:24;;;;;;;12.60;9.80;;;4.40;99.90;;;;;;4970468;28;20255;-87
2022/04/21 02:07:50;;;;;;;14.43;9.60;;;;;;;;;;4972277;28;20211;-87
2022/04/21 02:10:17;;;;;;;11.25;8.68;;;4.40;99.90;;;;;;4974809;28;20237;-88
2022/04/21 02:12:45;;;;;;;12.18;10.40;;;4.30;99.90;;;;;;4993845;28;20192;-85
2022/04/21 02:15:11;;;;;;;13.40;10.90;;;4.30;99.90;;;;;;4973485;28;20179;-86
2022/04/21 02:17:38;;;;;;;11.10;8.70;;;4.40;99.90;;;;;;4972150;28;20204;-86
2022/04/21 02:20:05;;;;;;;14.70;9.93;;;4.40;99.90;;;;;;4968998;28;20176;-87
2022/04/21 02:22:32;;;;;;;11.85;9.32;;;4.40;99.90;;;;;;4977294;28;20191;-86
2022/04/21 02:24:58;;;;;;;11.52;9.70;;;4.30;99.90;;;;;;4974421;28;20194;-86
2022/04/21 02:27:23;;;;;;;17.73;9.60;;;4.20;99.90;;;;;;4970520;28;20211;-84
2022/04/21 02:29:49;;;;;;;12.23;9.00;;;4.20;99.90;;;;;;4969260;28;20195;-86
2022/04/21 02:32:15;;;;;;;15.53;10.13;;;;;;;;;;4970961;28;20176;-84
2022/04/21 02:34:41;;;;;;;13.95;9.02;;;4.10;99.90;;;;;;4966741;28;20231;-85
2022/04/21 02:37:07;;;;;;;12.07;9.80;;;;;;;;;;4970634;28;20199;-83
2022/04/21 02:39:33;;;;;;;10.75;8.90;;;4.10;99.90;;;;;;4961107;28;20438;-87
2022/04/21 02:42:00;;;;;;;15.57;11.27;;;;;;;;;;4965854;28;20860;-84
2022/04/21 02:44:26;;;;;;;12.68;9.65;;;4.10;99.90;;;;;;4968395;28;20211;-84
2022/04/21 02:46:52;;;;;;;11.60;8.70;;;4.10;99.90;;;;;;4968128;28;20212;-84
2022/04/21 02:49:18;;;;;;;14.43;10.47;;;;;;;;;;4970016;28;20191;-87
2022/04/21 02:51:44;;;;;;;16.40;10.77;;;4.10;99.90;;;;;;4971944;28;20541;-86
2022/04/21 02:59:40;;;;;;;17.45;11.25;;;4.00;99.90;;;;;;4966207;28;20280;-86
2022/04/21 03:02:06;;;;;;;18.27;11.40;;;4.00;99.90;;;;;;4968963;28;20184;-87
2022/04/21 03:04:32;;;;;;;13.73;11.97;;;;;;;;;;4977127;28;20201;-85
2022/04/21 03:06:57;;;;;;;15.93;11.40;;;4.00;99.90;;;;;;4976443;28;20216;-86
2022/04/21 03:09:23;;;;;;;16.70;11.20;;;4.00;99.90;;;;;;4987219;28;20436;-88
2022/04/21 03:11:48;;;;;;;18.57;12.40;;;4.00;99.90;;;;;;4971140;28;20191;-85
2022/04/21 03:14:15;;;;;;;12.40;10.23;;;4.00;99.90;;;;;;4971618;28;20188;-86
2022/04/21 03:16:41;;;;;;;17.13;11.82;;;4.00;99.90;;;;;;4971875;28;20188;-82
2022/04/21 03:19:07;;;;;;;20.27;11.90;;;4.00;99.90;;;;;;4971130;28;20176;-89
2022/04/21 03:24:20;;;;;;;15.45;11.38;;;4.00;99.90;;;;;;4972541;28;20503;-86
2022/04/21 03:26:54;;;;;;;18.92;13.02;;;3.90;99.90;;;;;;4967793;28;20298;-85
2022/04/21 03:29:20;;;;;;;17.58;10.57;;;3.90;99.90;;;;;;4961714;28;20675;-84
2022/04/21 03:31:48;;;;;;;13.52;11.38;;;3.80;99.90;;;;;;4970718;28;20214;-82
2022/04/21 03:34:15;;;;;;;14.25;11.18;;;3.80;99.90;;;;;;4985330;28;20179;-86
2022/04/21 03:36:45;;;;;;;18.63;11.90;;;3.70;99.90;;;;;;4967868;28;20246;-85
2022/04/21 03:39:10;;;;;;;12.57;10.63;;;3.70;99.90;;;;;;4988137;28;20187;-84
2022/04/21 03:41:36;;;;;;;19.83;12.50;;;3.70;99.90;;;;;;4987160;28;20195;-86
2022/04/21 03:44:02;;;;;;;16.02;11.70;;;3.60;99.90;;;;;;4970080;28;21188;-89
2022/04/21 03:46:27;;;;;;;14.97;11.10;;;3.60;99.90;;;;;;4972979;28;20196;-86
2022/04/21 03:48:53;;;;;;;16.80;12.83;;;3.60;99.90;;;;;;4984776;28;20447;-87
2022/04/21 03:51:19;;;;;;;19.40;14.23;;;;;;;;;;4970767;28;20207;-86
2022/04/21 03:53:45;;;;;;;20.80;12.83;;;;;;;;;;4972659;28;20186;-87
2022/04/21 03:56:11;;;;;;;19.08;11.93;;;3.60;99.90;;;;;;4980579;28;20439;-85
2022/04/21 03:58:37;;;;;;;16.97;12.50;;;;;;;;;;4991378;28;20203;-88
2022/04/21 04:01:02;;;;;;;16.57;12.17;;;3.60;99.90;;;;;;4992408;28;20192;-85
2022/04/21 04:03:28;;;;;;;18.07;14.53;;;3.50;99.90;;;;;;4986982;28;20446;-85
2022/04/21 04:05:53;;;;;;;21.67;13.87;;;;;;;;;;4979984;28;20208;-86
2022/04/21 04:11:03;;;;;;;20.88;13.05;;;3.50;99.90;;;;;;4976455;28;20461;-85
2022/04/21 04:13:28;;;;;;;18.53;12.23;;;3.20;99.90;;;;;;4977996;28;20180;-87
2022/04/21 04:15:56;;;;;;;19.83;13.37;;;3.40;99.90;;;;;;4991679;28;20644;-87
2022/04/21 04:18:22;;;;;;;23.08;13.00;;;3.40;99.90;;;;;;4991022;28;20210;-86
2022/04/21 04:20:49;;;;;;;22.77;13.88;;;3.40;99.90;;;;;;4989316;28;20187;-86
2022/04/21 04:23:15;;;;;;;22.05;14.80;;;3.40;99.90;;;;;;4975472;28;20191;-87
2022/04/21 04:25:41;;;;;;;22.85;14.18;;;3.80;99.90;;;;;;4975431;28;20211;-86
2022/04/21 04:28:06;;;;;;;22.90;15.20;;;3.40;99.90;;;;;;4976001;28;20226;-88
2022/04/21 04:30:32;;;;;;;20.70;14.03;;;;;;;;;;4971981;28;20198;-87
2022/04/21 04:32:58;;;;;;;22.70;14.85;;;3.50;99.90;;;;;;4973679;28;20267;-86
2022/04/21 04:35:25;;;;;;;20.27;14.33;;;3.60;99.90;;;;;;4975796;28;20247;-86
2022/04/21 04:37:52;;;;;;;22.38;14.88;;;3.70;99.90;;;;;;4977114;28;20287;-85
2022/04/21 04:40:19;;;;;;;19.60;14.50;;;3.70;99.90;;;;;;4969341;28;20180;-86
2022/04/21 04:42:45;;;;;;;23.80;14.57;;;3.90;99.90;;;;;;4968917;28;20180;-85
2022/04/21 04:48:15;;;;;;;18.42;13.45;;;5.40;99.90;;;;;;4931009;29;20205;-86
2022/04/21 04:50:40;;;;;;;18.43;12.43;;;6.50;99.90;;;;;;4933996;29;20389;-89
2022/04/21 04:53:06;;;;;;;13.60;11.17;;;7.40;99.90;;;;;;4942592;28;20438;-86
2022/04/21 04:55:31;;;;;;;14.33;10.90;;;8.40;99.90;;;;;;4975104;28;20240;-86
2022/04/21 04:57:57;;;;;;;11.40;9.87;;;8.90;99.90;;;;;;4987482;28;20203;-85
2022/04/21 05:00:24;;;;;;;13.53;9.63;;;9.90;99.90;;;;;;4977455;28;20243;-85
2022/04/21 05:02:50;;;;;;;12.93;9.55;;;10.80;99.90;;;;;;4987513;28;20179;-88
2022/04/21 05:05:15;;;;;;;11.00;9.73;;;12.80;99.90;;;;;;4977607;28;20184;-82
2022/04/21 05:07:41;;;;;;;12.90;9.83;;;12.80;99.90;;;;;;4991468;28;20233;-82
2022/04/21 05:10:08;;;;;;;13.63;10.00;;;13.90;99.90;;;;;;4974293;28;20180;-87
2022/04/21 05:12:34;;;;;;;10.70;8.35;;;14.50;99.90;;;;;;4977301;28;20186;-88
2022/04/21 05:15:00;;;;;;;13.83;10.40;;;14.60;99.90;;;;;;4973964;28;20180;-86
2022/04/21 05:17:27;;;;;;;9.75;7.93;;;15.30;99.90;;;;;;4981335;28;20799;-87
2022/04/21 05:19:52;;;;;;;9.75;8.75;;;16.30;99.90;;;;;;4976854;28;20656;-87
2022/04/21 05:22:24;;;;;;;10.47;9.40;;;17.60;99.90;;;;;;4973162;28;20242;-87
2022/04/21 05:24:52;;;;;;;14.23;9.80;;;18.80;99.40;;;;;;4969305;28;20187;-87
2022/04/21 05:27:18;;;;;;;10.37;9.27;;;19.40;94.00;;;;;;4984967;28;20549;-87
2022/04/21 05:32:35;;;;;;;12.80;8.53;;;18.80;89.20;;;;;;4971069;28;20191;-87
2022/04/21 05:35:00;;;;;;;21.50;9.50;;;20.00;87.60;;;;;;4970524;28;21023;-88
2022/04/21 05:37:26;;;;;;;11.80;8.13;;;21.50;82.50;;;;;;4968041;28;20545;-85
2022/04/21 05:39:52;;;;;;;11.57;9.20;;;22.10;76.10;;;;;;4976286;28;20184;-87
2022/04/21 05:42:25;;;;;;;8.83;7.93;;;22.40;74.20;;;;;;4983796;28;20255;-87
2022/04/21 05:44:52;;;;;;;12.93;9.33;;;24.40;63.20;;;;;;4971862;28;20180;-86
2022/04/21 05:47:19;;;;;;;9.47;8.67;;;24.40;63.80;;;;;;4965612;28;20470;-85
2022/04/21 05:49:45;;;;;;;10.70;9.60;;;;;;;;;;4967016;28;20459;-86
2022/04/21 05:52:13;;;;;;;11.10;8.80;;;26.10;58.00;;;;;;4966546;28;20459;-85
2022/04/21 05:54:39;;;;;;;11.60;9.23;;;26.80;54.60;;;;;;4971202;28;20927;-85
2022/04/21 05:57:05;;;;;;;14.37;9.73;;;27.30;52.30;;;;;;4992364;28;20478;-86
2022/04/21 05:59:32;;;;;;;9.30;8.33;;;27.70;49.90;;;;;;4968842;28;20531;-85
2022/04/21 06:01:58;;;;;;;9.83;8.90;;;27.70;47.80;;;;;;4969541;28;21022;-85
2022/04/21 06:04:24;;;;;;;11.63;10.53;;;27.70;47.70;;;;;;4970315;28;20439;-87
2022/04/21 06:06:50;;;;;;;12.33;11.03;;;27.50;45.30;;;;;;4964389;28;20485;-85
2022/04/21 06:09:16;;;;;;;10.67;9.60;;;;;;;;;;4964090;28;20277;-86
2022/04/21 06:11:43;;;;;;;10.90;8.73;;;27.30;45.70;;;;;;4965795;28;20449;-86
2022/04/21 06:14:08;;;;;;;10.43;9.43;;;27.30;45.60;;;;;;4966888;28;20443;-87
2022/04/21 06:16:34;;;;;;;11.07;9.97;;;26.70;44.40;;;;;;4963300;28;20482;-86
2022/04/21 06:18:59;;;;;;;14.13;10.10;;;27.00;45.10;;;;;;4966297;28;21151;-86
2022/04/21 06:21:25;;;;;;;13.90;9.60;;;26.80;46.30;;;;;;4963473;28;20211;-87
2022/04/21 06:23:51;;;;;;;12.67;10.73;;;;;;;;;;4963006;28;20204;-87
2022/04/21 06:26:17;;;;;;;12.10;10.90;;;;;;;;;;4961024;28;20208;-82
2022/04/21 06:28:43;;;;;;;11.97;10.87;;;26.90;44.30;;;;;;4960031;28;20520;-89
2022/04/21 06:31:09;;;;;;;14.73;10.60;;;27.00;45.50;;;;;;4964588;28;20447;-90
2022/04/21 06:33:35;;;;;;;11.60;10.40;;;;;;;;;;4981827;28;20467;-86
2022/04/21 06:36:06;;;;;;;14.63;10.80;;;28.00;43.60;;;;;;4984555;28;20439;-89
2022/04/21 06:38:31;;;;;;;10.63;9.60;;;28.40;43.60;;;;;;4981387;28;20998;-88
2022/04/21 06:40:57;;;;;;;10.80;9.70;;;28.90;42.90;;;;;;4971798;28;20458;-88
2022/04/21 06:48:52;;;;;;;14.17;12.30;;;30.00;40.10;;;;;;4963435;28;20471;-85
2022/04/21 06:51:18;;;;;;;11.53;10.33;;;28.90;39.90;;;;;;4965424;28;20439;-86
2022/04/21 06:53:44;;;;;;;13.23;12.00;;;29.10;40.50;;;;;;4982440;28;20666;-86
2022/04/21 06:56:19;;;;;;;12.20;11.00;;;29.40;39.80;;;;;;5006023;28;20172;-84
2022/04/21 06:58:46;;;;;;;12.77;11.57;;;29.40;39.30;;;;;;4992849;28;20466;-84
2022/04/21 07:01:11;;;;;;;15.47;12.50;;;26.80;41.60;;;;;;5004022;28;20435;-86
2022/04/21 07:03:38;;;;;;;13.97;12.60;;;27.50;42.00;;;;;;4987247;28;20439;-88
2022/04/21 07:06:04;;;;;;;12.30;11.10;;;;;;;;;;4973042;28;20212;-87
2022/04/21 07:08:30;;;;;;;13.43;12.10;;;27.10;41.70;;;;;;4966204;28;20522;-86
2022/04/21 07:10:56;;;;;;;14.60;11.67;;;;;;;;;;4970149;28;20475;-86
2022/04/21 07:13:21;;;;;;;15.30;11.47;;;28.60;41.60;;;;;;4984946;28;20276;-88
2022/04/21 07:15:47;;;;;;;14.43;11.83;;;;;;;;;;4968693;28;20452;-88
2022/04/21 07:18:13;;;;;;;14.10;12.60;;;;;;;;;;4967453;28;20213;-88
2022/04/21 07:20:39;;;;;;;15.90;14.07;;;28.50;38.10;;;;;;4968069;28;20536;-87
2022/04/21 07:23:05;;;;;;;14.30;12.90;;;28.50;38.60;;;;;;4986359;28;20432;-85
2022/04/21 07:25:32;;;;;;;14.23;12.80;;;;;;;;;;4981844;28;20974;-87
2022/04/21 07:27:58;;;;;;;13.20;11.90;;;;;;;;;;4968483;28;20514;-87
2022/04/21 07:30:23;;;;;;;19.90;12.70;;;;;;;;;;4965302;28;20435;-85
2022/04/21 07:32:49;;;;;;;15.53;13.97;;;;;;;;;;4965780;28;20450;-89
2022/04/21 07:35:16;;;;;;;14.23;12.83;;;;;;;;;;4969164;28;20574;-87
2022/04/21 07:37:42;;;;;;;15.17;13.70;;;28.80;38.90;;;;;;4968138;28;20507;-86
2022/04/21 07:40:08;;;;;;;13.43;12.13;;;28.70;39.50;;;;;;4973515;28;20439;-89
2022/04/21 07:42:33;;;;;;;13.87;12.43;;;28.80;39.80;;;;;;4977985;28;20444;-87
2022/04/21 07:45:03;;;;;;;15.63;14.03;;;29.20;39.40;;;;;;4974203;28;20273;-87
2022/04/21 07:47:28;;;;;;;14.57;12.53;;;;;;;;;;4987383;28;20753;-85
2022/04/21 07:49:56;;;;;;;15.87;13.53;;;;;;;;;;4973818;28;21021;-86
2022/04/21 07:55:17;;;;;;;14.90;13.33;;;28.30;40.00;;;;;;4975305;28;20446;-88
2022/04/21 07:57:44;;;;;;;14.47;13.17;;;28.20;40.40;;;;;;4976698;28;20830;-89
2022/04/21 08:00:11;;;;;;;15.60;13.90;;;27.80;40.30;;;;;;4982078;28;20459;-86
2022/04/21 08:02:41;;;;;;;13.70;12.37;;;27.50;40.30;;;;;;4992172;28;20885;-86
2022/04/21 08:05:08;;;;;;;15.40;13.80;;;26.90;40.80;;;;;;4987755;28;20958;-86
2022/04/21 08:07:49;;;;;;;14.37;12.97;;;25.50;41.70;;;;;;4977430;28;20471;-87
2022/04/21 08:10:15;;;;;;;13.67;12.20;;;27.00;42.20;;;;;;4974035;28;20426;-86
2022/04/21 08:12:43;;;;;;;15.37;13.83;;;27.00;42.70;;;;;;4984949;28;21042;-88
2022/04/21 08:15:12;;;;;;;14.47;12.93;;;27.20;41.30;;;;;;4973470;28;20431;-88
2022/04/21 08:17:39;;;;;;;15.70;13.53;;;27.80;41.80;;;;;;4980544;28;20462;-88
2022/04/21 08:20:06;;;;;;;15.77;13.60;;;26.80;41.70;;;;;;4978232;28;20435;-89
2022/04/21 08:22:36;;;;;;;16.60;13.67;;;27.90;42.10;;;;;;4970991;28;20523;-87
2022/04/21 08:33:18;;;;;;;14.63;13.13;;;29.70;38.40;;;;;;4949473;28;20442;-88
2022/04/21 08:35:45;;;;;;;15.13;13.83;;;28.60;38.80;;;;;;4976706;28;20987;-88
2022/04/21 08:38:11;;;;;;;19.03;14.03;;;;;;;;;;4983819;28;20481;-89
2022/04/21 08:40:37;;;;;;;17.70;14.80;;;;;;;;;;4978184;28;20440;-87
2022/04/21 08:43:15;;;;;;;16.20;14.30;;;27.70;39.50;;;;;;4974805;28;20475;-86
2022/04/21 08:45:43;;;;;;;16.07;14.47;;;25.90;41.70;;;;;;4989987;28;20454;-87
2022/04/21 08:48:11;;;;;;;16.30;14.00;;;26.00;41.00;;;;;;4971976;28;20459;-89
2022/04/21 08:50:38;;;;;;;15.80;14.00;;;25.70;42.70;;;;;;4975382;28;20842;-88
2022/04/21 08:53:07;;;;;;;16.80;13.90;;;25.50;41.70;;;;;;4981338;28;20494;-88
2022/04/21 08:55:33;;;;;;;15.17;13.60;;;;;;;;;;4990034;28;20450;-86
2022/04/21 08:58:03;;;;;;;17.37;14.83;;;24.00;43.80;;;;;;4980364;28;20454;-88
2022/04/21 09:00:31;;;;;;;18.53;13.17;;;24.00;44.40;;;;;;4976623;28;20475;-87
2022/04/21 09:02:57;;;;;;;17.13;15.33;;;24.10;44.80;;;;;;4977740;28;20490;-88
2022/04/21 09:05:23;;;;;;;15.97;14.23;;;;;;;;;;4975095;28;20427;-87
2022/04/21 09:07:52;;;;;;;15.83;13.80;;;25.80;42.50;;;;;;4975694;28;20491;-85
2022/04/21 09:10:20;;;;;;;15.30;12.00;;;26.70;41.60;;;;;;4976158;28;20443;-90
2022/04/21 09:12:57;;;;;;;15.07;13.47;;;26.30;41.60;;;;;;4983657;28;20992;-89
2022/04/21 09:15:28;;;;;;;13.20;11.90;;;26.70;41.10;;;;;;4975282;28;20483;-88
2022/04/21 09:17:58;;;;;;;12.87;11.77;;;26.70;41.60;;;;;;4974085;28;20450;-89
2022/04/21 09:20:31;;;;;;;15.07;13.17;;;27.10;41.90;;;;;;4990578;28;20439;-88
2022/04/21 09:22:59;;;;;;;12.67;11.47;;;26.80;42.10;;;;;;4991045;28;20437;-89
2022/04/21 09:25:32;;;;;;;12.47;11.07;;;27.60;40.70;;;;;;4976486;28;20436;-89
2022/04/21 09:27:59;;;;;;;12.30;11.03;;;27.50;40.80;;;;;;4980144;28;20451;-88
2022/04/21 09:30:25;;;;;;;15.63;10.60;;;27.50;39.60;;;;;;4995477;28;20452;-87
2022/04/21 09:32:59;;;;;;;14.93;8.97;;;27.40;40.10;;;;;;4977637;28;20518;-88
2022/04/21 09:35:27;;;;;;;9.37;8.40;;;24.80;41.10;;;;;;4977644;28;20439;-87
2022/04/21 09:37:55;;;;;;;8.87;7.97;;;24.40;43.10;;;;;;4978550;28;20449;-88
2022/04/21 09:40:23;;;;;;;14.57;9.50;;;25.10;42.50;;;;;;4983385;28;20439;-87
2022/04/21 09:43:03;;;;;;;7.87;7.07;;;23.80;45.70;;;;;;4976280;28;20506;-87
2022/04/21 09:48:25;;;;;;;9.50;8.50;;;23.10;47.40;;;;;;4976933;28;20510;-88
2022/04/21 09:50:56;;;;;;;6.23;5.63;;;21.30;46.50;;;;;;4993775;28;20430;-86
2022/04/21 09:53:23;;;;;;;7.10;6.47;;;21.10;47.00;;;;;;4997705;28;20419;-85
2022/04/21 09:56:05;;;;;;;6.70;5.90;;;23.10;46.90;;;;;;4979956;28;20479;-86
2022/04/21 09:58:36;;;;;;;6.03;5.47;;;23.00;47.30;;;;;;4980451;28;20573;-89
2022/04/21 10:01:03;;;;;;;6.40;5.17;;;23.50;45.20;;;;;;4974403;28;20430;-88
2022/04/21 10:03:33;;;;;;;6.17;5.57;;;22.50;44.60;;;;;;4973291;28;20438;-90
2022/04/21 10:05:59;;;;;;;7.43;5.73;;;22.20;44.90;;;;;;4974719;28;20455;-88
2022/04/21 10:08:25;;;;;;;6.83;6.00;;;22.20;45.00;;;;;;4987667;28;20504;-89
2022/04/21 10:10:52;;;;;;;6.20;5.60;;;22.40;44.90;;;;;;4971367;28;20526;-87
2022/04/21 10:13:18;;;;;;;5.60;5.10;;;22.50;46.40;;;;;;4971474;28;20183;-88
2022/04/21 10:15:44;;;;;;;6.53;5.90;;;21.10;45.30;;;;;;4971081;28;20423;-87
2022/04/21 10:18:13;;;;;;;8.73;5.77;;;20.50;48.10;;;;;;4974374;28;20814;-91
2022/04/21 10:20:41;;;;;;;9.30;5.93;;;20.50;48.70;;;;;;4975550;28;20450;-84
2022/04/21 10:23:16;;;;;;;8.00;6.20;;;18.60;52.10;;;;;;4993840;28;20655;-85
2022/04/21 10:25:45;;;;;;;7.63;5.07;;;18.50;52.50;;;;;;4977703;28;20419;-88
2022/04/21 10:28:46;;;;;;;9.87;5.60;;;17.70;52.50;;;;;;4970071;28;20508;-89
2022/04/21 10:31:33;;;;;;;6.03;5.43;;;17.10;54.40;;;;;;4971899;28;20437;-87
2022/04/21 10:34:01;;;;;;;6.67;5.97;;;16.60;56.00;;;;;;4974594;28;20431;-87
2022/04/21 10:36:33;;;;;;;6.73;5.10;;;16.50;58.00;;;;;;4972323;28;20451;-88
2022/04/21 10:39:12;;;;;;;7.83;5.50;;;16.70;58.70;;;;;;4967762;28;20450;-89
2022/04/21 10:41:41;;;;;;;7.93;4.87;;;16.90;58.20;;;;;;4971362;28;20566;-88
2022/04/21 10:44:25;;;;;;;8.00;5.50;;;17.00;56.30;;;;;;4972141;28;20455;-90
2022/04/21 10:47:29;;;;;;;8.00;5.70;;;17.00;56.30;;;;;;4973346;28;20465;-88
2022/04/21 10:50:00;;;;;;;8.23;6.10;;;17.00;56.30;;;;;;4970761;28;20474;-88
2022/04/21 10:57:56;;;;;;;7.67;5.83;;;17.50;57.00;;;;;;4970590;28;20445;-85
2022/04/21 11:00:27;;;;;;;5.97;5.20;;;17.40;56.20;;;;;;4987409;28;20435;-88
2022/04/21 11:03:09;;;;;;;5.47;4.60;;;17.50;57.20;;;;;;4986224;28;20873;-87
2022/04/21 11:05:39;;;;;;;5.33;4.40;;;18.60;57.80;;;;;;4969748;28;20462;-88
2022/04/21 11:08:11;;;;;;;7.93;4.93;;;17.30;55.90;;;;;;4972806;28;20998;-90
2022/04/21 11:10:37;;;;;;;6.47;4.77;;;17.00;56.40;;;;;;4971021;28;21164;-89
2022/04/21 11:13:04;;;;;;;5.60;4.47;;;16.80;56.30;;;;;;4970819;28;20412;-88
2022/04/21 11:15:49;;;;;;;5.00;4.43;;;17.00;58.00;;;;;;4975956;28;20263;-88
2022/04/21 11:18:18;;;;;;;8.87;5.70;;;17.50;56.30;;;;;;4973251;28;21030;-89
2022/04/21 11:20:48;;;;;;;7.30;4.57;;;17.80;58.00;;;;;;4972903;28;20428;-89
2022/04/21 11:23:44;;;;;;;5.43;4.77;;;18.00;56.80;;;;;;4974326;28;20541;-89
2022/04/21 11:26:10;;;;;;;8.43;4.70;;;18.40;55.30;;;;;;4975208;28;20458;-89
2022/04/21 11:28:41;;;;;;;7.57;5.27;;;18.50;54.60;;;;;;4982161;28;20470;-89
2022/04/21 11:31:06;;;;;;;5.63;4.93;;;18.10;55.20;;;;;;4991140;28;20180;-88
2022/04/21 11:33:32;;;;;;;5.60;4.40;;;18.00;54.60;;;;;;4975756;28;20437;-87
2022/04/21 11:36:04;;;;;;;4.93;4.43;;;17.70;55.60;;;;;;4974121;28;20183;-87
2022/04/21 11:38:32;;;;;;;8.17;4.67;;;17.70;56.10;;;;;;4975771;28;20196;-87
2022/04/21 11:41:04;;;;;;;4.77;4.30;;;17.70;55.20;;;;;;4974270;28;20439;-88
2022/04/21 11:43:30;;;;;;;7.17;4.97;;;18.10;58.20;;;;;;4974559;28;20501;-88
2022/04/21 11:46:01;;;;;;;5.57;4.93;;;18.60;57.00;;;;;;4976904;28;20550;-87
2022/04/21 11:48:36;;;;;;;6.53;4.80;;;18.20;55.70;;;;;;4985328;28;20443;-89
2022/04/21 11:51:03;;;;;;;5.83;5.00;;;18.40;55.90;;;;;;4995550;28;20431;-84
2022/04/21 11:53:30;;;;;;;6.80;4.23;;;18.70;56.20;;;;;;4978980;28;20431;-89
2022/04/21 11:55:55;;;;;;;6.80;4.83;;;18.70;55.80;;;;;;4974684;28;20415;-86
2022/04/21 11:58:32;;;;;;;5.60;4.60;;;18.50;55.10;;;;;;4974772;28;20525;-87
2022/04/21 12:06:38;;;;;;;6.27;4.97;;;18.40;56.20;;;;;;4975238;28;20518;-88
2022/04/21 12:09:05;;;;;;;9.20;4.93;;;18.40;56.70;;;;;;4972562;28;20457;-87
2022/04/21 12:11:31;;;;;;;9.50;5.17;;;18.50;57.60;;;;;;4972239;28;20493;-88
2022/04/21 12:13:56;;;;;;;11.97;6.50;;;18.10;58.10;;;;;;4974036;28;21204;-87
2022/04/21 12:16:41;;;;;;;8.40;7.17;;;17.70;59.00;;;;;;4974387;28;20501;-86
2022/04/21 12:19:16;;;;;;;6.87;5.67;;;17.50;61.40;;;;;;4974576;28;20223;-89
2022/04/21 12:21:56;;;;;;;11.80;6.33;;;17.60;61.70;;;;;;4972929;28;20434;-88
2022/04/21 12:24:29;;;;;;;10.87;6.67;;;17.60;61.70;;;;;;4969012;28;20506;-88
2022/04/21 12:26:54;;;;;;;8.40;5.80;;;17.30;62.20;;;;;;4973399;28;20867;-87
2022/04/21 12:29:22;;;;;;;6.73;5.17;;;17.30;63.00;;;;;;4974031;28;20433;-87
2022/04/21 12:31:51;;;;;;;8.53;5.30;;;17.60;63.80;;;;;;4975010;28;20703;-89
2022/04/21 12:34:26;;;;;;;8.10;4.87;;;17.80;60.10;;;;;;4971571;28;20446;-89
2022/04/21 12:36:53;;;;;;;8.53;5.20;;;17.70;59.60;;;;;;4977990;28;20477;-90
2022/04/21 12:39:20;;;;;;;6.47;4.97;;;;;;;;;;4989930;28;20446;-87
2022/04/21 12:41:46;;;;;;;6.70;5.60;;;17.50;59.80;;;;;;4978690;28;21005;-88
2022/04/21 12:44:12;;;;;;;8.73;5.90;;;17.80;61.40;;;;;;4979298;28;20535;-87
2022/04/21 12:46:38;;;;;;;6.97;5.70;;;17.90;60.10;;;;;;4976061;28;20493;-86
2022/04/21 12:49:04;;;;;;;9.50;5.77;;;;;;;;;;4965817;28;20542;-85
2022/04/21 12:51:30;;;;;;;6.40;5.30;;;;;;;;;;4970712;28;21013;-86
2022/04/21 12:53:57;;;;;;;7.13;5.30;;;17.40;61.60;;;;;;4974192;28;20427;-87
2022/04/21 12:56:36;;;;;;;8.13;5.43;;;17.40;62.30;;;;;;4972523;28;20458;-88
2022/04/21 12:59:03;;;;;;;6.97;5.60;;;17.60;61.30;;;;;;4989099;28;20446;-88
2022/04/21 13:01:28;;;;;;;5.30;4.80;;;17.50;62.40;;;;;;4969648;28;20520;-88
2022/04/21 13:03:57;;;;;;;7.23;5.17;;;17.20;61.30;;;;;;4967790;28;20535;-86
2022/04/21 13:06:28;;;;;;;7.10;5.47;;;17.30;61.40;;;;;;4968970;28;20231;-89
2022/04/21 13:08:55;;;;;;;9.13;5.73;;;17.40;61.10;;;;;;4987986;28;20493;-88
2022/04/21 13:11:31;;;;;;;7.67;6.47;;;17.50;61.60;;;;;;4976145;28;20590;-87
2022/04/21 13:13:56;;;;;;;8.53;5.03;;;17.40;61.90;;;;;;4989796;28;20449;-84
2022/04/21 13:16:22;;;;;;;7.70;5.50;;;17.60;62.20;;;;;;4985555;28;20447;-85
2022/04/21 13:18:48;;;;;;;9.07;5.93;;;17.50;61.00;;;;;;4975410;28;20202;-84
2022/04/21 13:23:59;;;;;;;7.13;6.13;;;17.90;60.60;;;;;;4981414;28;20182;-89
2022/04/21 13:26:28;;;;;;;6.47;5.73;;;17.90;61.80;;;;;;4981086;28;21034;-88
2022/04/21 13:28:58;;;;;;;14.00;6.30;;;18.20;62.40;;;;;;4967440;28;20479;-85
2022/04/21 13:34:09;;;;;;;7.30;6.13;;;18.40;62.00;;;;;;4988948;28;20438;-88
2022/04/21 13:36:37;;;;;;;8.30;6.20;;;18.40;58.60;;;;;;4995213;28;20498;-87
2022/04/21 13:39:03;;;;;;;5.90;5.03;;;20.70;62.30;;;;;;4969406;28;20891;-84
2022/04/21 13:41:29;;;;;;;8.40;5.20;;;18.10;59.10;;;;;;4974894;28;20489;-85
2022/04/21 13:43:54;;;;;;;6.97;5.80;;;17.90;59.80;;;;;;4970342;28;20438;-89
2022/04/21 13:46:20;;;;;;;6.03;5.10;;;17.90;59.40;;;;;;4987412;28;20207;-87
2022/04/21 13:48:46;;;;;;;5.60;5.00;;;17.50;59.20;;;;;;4970103;28;20590;-87
2022/04/21 13:51:12;;;;;;;6.23;5.63;;;;;;;;;;4969966;28;20261;-88
2022/04/21 13:53:38;;;;;;;6.50;4.80;;;;;;;;;;4969240;28;20237;-87
2022/04/21 13:56:06;;;;;;;6.07;4.90;;;17.60;58.90;;;;;;4965889;28;21096;-88
2022/04/21 13:58:33;;;;;;;6.70;5.73;;;;;;;;;;4969656;28;20474;-85
2022/04/21 14:01:00;;;;;;;7.90;5.17;;;17.80;59.70;;;;;;4964581;28;20526;-87